sensor_id;sensor_type;location;lat;lon;timestamp;P1;durP1;ratioP1;P2;durP2;ratioP2
13311;SDS011;34033;48.672;9.376;2023-05-29T00:01:49;7.07;;;3.70;;
13311;SDS011;34033;48.672;9.376;2023-05-29T00:04:15;6.53;;;3.87;;
13311;SDS011;34033;48.672;9.376;2023-05-29T00:06:40;5.23;;;4.03;;
13311;SDS011;34033;48.672;9.376;2023-05-29T00:09:06;6.40;;;4.03;;
13311;SDS011;34033;48.672;9.376;2023-05-29T00:11:31;5.73;;;4.07;;
13311;SDS011;34033;48.672;9.376;2023-05-29T00:13:57;8.20;;;3.87;;
13311;SDS011;34033;48.672;9.376;2023-05-29T00:16:22;5.57;;;3.90;;
13311;SDS011;34033;48.672;9.376;2023-05-29T00:18:51;6.30;;;3.80;;
13311;SDS011;34033;48.672;9.376;2023-05-29T00:21:17;7.23;;;3.40;;
13311;SDS011;34033;48.672;9.376;2023-05-29T00:23:42;6.40;;;3.70;;
13311;SDS011;34033;48.672;9.376;2023-05-29T00:26:08;5.90;;;3.60;;
13311;SDS011;34033;48.672;9.376;2023-05-29T00:28:34;7.07;;;4.07;;
13311;SDS011;34033;48.672;9.376;2023-05-29T00:31:01;4.40;;;3.13;;
13311;SDS011;34033;48.672;9.376;2023-05-29T00:33:26;9.00;;;3.57;;
13311;SDS011;34033;48.672;9.376;2023-05-29T00:35:52;4.23;;;3.43;;
13311;SDS011;34033;48.672;9.376;2023-05-29T00:38:17;5.27;;;3.33;;
13311;SDS011;34033;48.672;9.376;2023-05-29T00:40:42;5.10;;;3.13;;
13311;SDS011;34033;48.672;9.376;2023-05-29T00:43:08;5.73;;;3.10;;
13311;SDS011;34033;48.672;9.376;2023-05-29T00:45:33;4.43;;;3.40;;
13311;SDS011;34033;48.672;9.376;2023-05-29T00:48:01;4.80;;;3.57;;
13311;SDS011;34033;48.672;9.376;2023-05-29T00:50:31;8.77;;;3.63;;
13311;SDS011;34033;48.672;9.376;2023-05-29T00:52:57;5.30;;;3.50;;
13311;SDS011;34033;48.672;9.376;2023-05-29T00:55:25;7.27;;;3.70;;
13311;SDS011;34033;48.672;9.376;2023-05-29T00:57:50;13.30;;;4.10;;
13311;SDS011;34033;48.672;9.376;2023-05-29T01:00:16;4.27;;;3.47;;
13311;SDS011;34033;48.672;9.376;2023-05-29T01:02:43;5.60;;;3.27;;
13311;SDS011;34033;48.672;9.376;2023-05-29T01:05:11;5.90;;;3.67;;
13311;SDS011;34033;48.672;9.376;2023-05-29T01:07:37;6.27;;;3.63;;
13311;SDS011;34033;48.672;9.376;2023-05-29T01:10:03;5.83;;;3.93;;
13311;SDS011;34033;48.672;9.376;2023-05-29T01:15:20;6.40;;;3.40;;
13311;SDS011;34033;48.672;9.376;2023-05-29T01:20:52;5.80;;;3.80;;
13311;SDS011;34033;48.672;9.376;2023-05-29T01:28:52;9.40;;;3.83;;
13311;SDS011;34033;48.672;9.376;2023-05-29T01:31:20;3.97;;;3.40;;
13311;SDS011;34033;48.672;9.376;2023-05-29T01:34:06;5.13;;;3.60;;
13311;SDS011;34033;48.672;9.376;2023-05-29T01:36:31;8.87;;;4.00;;
13311;SDS011;34033;48.672;9.376;2023-05-29T01:38:57;6.03;;;3.80;;
13311;SDS011;34033;48.672;9.376;2023-05-29T01:41:24;9.37;;;4.60;;
13311;SDS011;34033;48.672;9.376;2023-05-29T01:43:51;6.13;;;4.20;;
13311;SDS011;34033;48.672;9.376;2023-05-29T01:46:17;6.70;;;4.00;;
13311;SDS011;34033;48.672;9.376;2023-05-29T01:48:44;6.33;;;4.50;;
13311;SDS011;34033;48.672;9.376;2023-05-29T01:51:11;5.57;;;4.47;;
13311;SDS011;34033;48.672;9.376;2023-05-29T01:53:37;7.17;;;4.53;;
13311;SDS011;34033;48.672;9.376;2023-05-29T01:56:04;7.80;;;4.17;;
13311;SDS011;34033;48.672;9.376;2023-05-29T01:58:31;9.93;;;4.57;;
13311;SDS011;34033;48.672;9.376;2023-05-29T02:00:58;6.83;;;4.40;;
13311;SDS011;34033;48.672;9.376;2023-05-29T02:03:23;5.97;;;4.17;;
13311;SDS011;34033;48.672;9.376;2023-05-29T02:05:49;7.00;;;4.70;;
13311;SDS011;34033;48.672;9.376;2023-05-29T02:08:15;5.90;;;4.00;;
13311;SDS011;34033;48.672;9.376;2023-05-29T02:10:41;8.77;;;4.40;;
13311;SDS011;34033;48.672;9.376;2023-05-29T02:13:06;5.40;;;3.93;;
13311;SDS011;34033;48.672;9.376;2023-05-29T02:15:31;5.17;;;4.00;;
13311;SDS011;34033;48.672;9.376;2023-05-29T02:17:57;6.47;;;3.70;;
13311;SDS011;34033;48.672;9.376;2023-05-29T02:20:23;6.13;;;3.77;;
13311;SDS011;34033;48.672;9.376;2023-05-29T02:22:49;5.13;;;4.20;;
13311;SDS011;34033;48.672;9.376;2023-05-29T02:25:14;6.13;;;3.73;;
13311;SDS011;34033;48.672;9.376;2023-05-29T02:27:40;6.57;;;3.97;;
13311;SDS011;34033;48.672;9.376;2023-05-29T02:30:05;14.50;;;4.80;;
13311;SDS011;34033;48.672;9.376;2023-05-29T02:32:31;6.43;;;4.87;;
13311;SDS011;34033;48.672;9.376;2023-05-29T02:34:57;7.17;;;4.07;;
13311;SDS011;34033;48.672;9.376;2023-05-29T02:37:23;8.20;;;4.10;;
13311;SDS011;34033;48.672;9.376;2023-05-29T02:39:50;7.37;;;4.10;;
13311;SDS011;34033;48.672;9.376;2023-05-29T02:42:16;8.93;;;4.30;;
13311;SDS011;34033;48.672;9.376;2023-05-29T02:44:41;4.50;;;3.60;;
13311;SDS011;34033;48.672;9.376;2023-05-29T02:47:06;7.10;;;4.40;;
13311;SDS011;34033;48.672;9.376;2023-05-29T02:49:32;5.07;;;3.43;;
13311;SDS011;34033;48.672;9.376;2023-05-29T02:51:57;5.13;;;3.80;;
13311;SDS011;34033;48.672;9.376;2023-05-29T02:54:25;4.63;;;3.83;;
13311;SDS011;34033;48.672;9.376;2023-05-29T02:56:51;6.30;;;3.47;;
13311;SDS011;34033;48.672;9.376;2023-05-29T02:59:17;5.13;;;3.37;;
13311;SDS011;34033;48.672;9.376;2023-05-29T03:01:42;4.00;;;3.60;;
13311;SDS011;34033;48.672;9.376;2023-05-29T03:04:09;5.13;;;3.47;;
13311;SDS011;34033;48.672;9.376;2023-05-29T03:06:35;4.30;;;3.80;;
13311;SDS011;34033;48.672;9.376;2023-05-29T03:09:01;5.93;;;3.73;;
13311;SDS011;34033;48.672;9.376;2023-05-29T03:11:33;5.77;;;3.73;;
13311;SDS011;34033;48.672;9.376;2023-05-29T03:14:00;3.80;;;3.40;;
13311;SDS011;34033;48.672;9.376;2023-05-29T03:16:26;3.77;;;3.13;;
13311;SDS011;34033;48.672;9.376;2023-05-29T03:18:54;4.53;;;3.90;;
13311;SDS011;34033;48.672;9.376;2023-05-29T03:21:19;7.27;;;3.70;;
13311;SDS011;34033;48.672;9.376;2023-05-29T03:23:46;5.03;;;3.63;;
13311;SDS011;34033;48.672;9.376;2023-05-29T03:26:11;6.23;;;3.90;;
13311;SDS011;34033;48.672;9.376;2023-05-29T03:28:37;4.73;;;3.53;;
13311;SDS011;34033;48.672;9.376;2023-05-29T03:31:03;4.03;;;3.37;;
13311;SDS011;34033;48.672;9.376;2023-05-29T03:33:28;4.30;;;3.53;;
13311;SDS011;34033;48.672;9.376;2023-05-29T03:35:54;4.77;;;3.50;;
13311;SDS011;34033;48.672;9.376;2023-05-29T03:38:20;7.33;;;5.00;;
13311;SDS011;34033;48.672;9.376;2023-05-29T03:40:45;6.37;;;3.50;;
13311;SDS011;34033;48.672;9.376;2023-05-29T03:43:11;8.90;;;4.80;;
13311;SDS011;34033;48.672;9.376;2023-05-29T03:45:36;11.43;;;4.63;;
13311;SDS011;34033;48.672;9.376;2023-05-29T03:48:01;6.77;;;3.67;;
13311;SDS011;34033;48.672;9.376;2023-05-29T03:50:27;5.67;;;3.60;;
13311;SDS011;34033;48.672;9.376;2023-05-29T03:52:52;6.47;;;3.60;;
13311;SDS011;34033;48.672;9.376;2023-05-29T03:55:18;8.77;;;3.77;;
13311;SDS011;34033;48.672;9.376;2023-05-29T03:57:43;4.97;;;3.60;;
13311;SDS011;34033;48.672;9.376;2023-05-29T04:00:09;10.80;;;3.70;;
13311;SDS011;34033;48.672;9.376;2023-05-29T04:02:36;4.63;;;3.50;;
13311;SDS011;34033;48.672;9.376;2023-05-29T04:05:05;6.93;;;3.50;;
13311;SDS011;34033;48.672;9.376;2023-05-29T04:07:31;5.47;;;3.50;;
13311;SDS011;34033;48.672;9.376;2023-05-29T04:09:58;3.87;;;3.37;;
13311;SDS011;34033;48.672;9.376;2023-05-29T04:12:23;6.43;;;3.50;;
13311;SDS011;34033;48.672;9.376;2023-05-29T04:14:48;7.10;;;3.50;;
13311;SDS011;34033;48.672;9.376;2023-05-29T04:17:13;8.23;;;3.70;;
13311;SDS011;34033;48.672;9.376;2023-05-29T04:19:39;3.60;;;3.30;;
13311;SDS011;34033;48.672;9.376;2023-05-29T04:22:04;4.43;;;3.00;;
13311;SDS011;34033;48.672;9.376;2023-05-29T04:24:30;3.90;;;3.00;;
13311;SDS011;34033;48.672;9.376;2023-05-29T04:26:56;4.47;;;3.33;;
13311;SDS011;34033;48.672;9.376;2023-05-29T04:29:22;7.53;;;3.10;;
13311;SDS011;34033;48.672;9.376;2023-05-29T04:31:47;8.73;;;3.40;;
13311;SDS011;34033;48.672;9.376;2023-05-29T04:34:13;3.77;;;3.17;;
13311;SDS011;34033;48.672;9.376;2023-05-29T04:36:41;4.00;;;3.10;;
13311;SDS011;34033;48.672;9.376;2023-05-29T04:39:08;6.10;;;3.10;;
13311;SDS011;34033;48.672;9.376;2023-05-29T04:41:34;4.07;;;3.23;;
13311;SDS011;34033;48.672;9.376;2023-05-29T04:44:00;6.30;;;3.17;;
13311;SDS011;34033;48.672;9.376;2023-05-29T04:46:26;3.80;;;3.07;;
13311;SDS011;34033;48.672;9.376;2023-05-29T04:48:51;3.40;;;3.00;;
13311;SDS011;34033;48.672;9.376;2023-05-29T04:51:21;6.90;;;3.50;;
13311;SDS011;34033;48.672;9.376;2023-05-29T04:53:47;7.37;;;3.40;;
13311;SDS011;34033;48.672;9.376;2023-05-29T04:56:13;5.07;;;3.07;;
13311;SDS011;34033;48.672;9.376;2023-05-29T04:58:40;4.07;;;3.13;;
13311;SDS011;34033;48.672;9.376;2023-05-29T05:01:06;4.07;;;3.63;;
13311;SDS011;34033;48.672;9.376;2023-05-29T05:03:33;4.93;;;3.20;;
13311;SDS011;34033;48.672;9.376;2023-05-29T05:05:59;7.67;;;3.57;;
13311;SDS011;34033;48.672;9.376;2023-05-29T05:08:25;4.07;;;3.20;;
13311;SDS011;34033;48.672;9.376;2023-05-29T05:10:50;3.60;;;3.30;;
13311;SDS011;34033;48.672;9.376;2023-05-29T05:13:15;5.17;;;3.43;;
13311;SDS011;34033;48.672;9.376;2023-05-29T05:15:41;4.00;;;3.30;;
13311;SDS011;34033;48.672;9.376;2023-05-29T05:18:06;5.17;;;3.27;;
13311;SDS011;34033;48.672;9.376;2023-05-29T05:20:31;4.67;;;3.10;;
13311;SDS011;34033;48.672;9.376;2023-05-29T05:22:57;4.53;;;3.63;;
13311;SDS011;34033;48.672;9.376;2023-05-29T05:25:22;3.93;;;3.20;;
13311;SDS011;34033;48.672;9.376;2023-05-29T05:27:47;4.23;;;3.33;;
13311;SDS011;34033;48.672;9.376;2023-05-29T05:30:13;4.20;;;3.33;;
13311;SDS011;34033;48.672;9.376;2023-05-29T05:32:38;4.07;;;3.30;;
13311;SDS011;34033;48.672;9.376;2023-05-29T05:35:04;3.20;;;2.90;;
13311;SDS011;34033;48.672;9.376;2023-05-29T05:37:29;3.27;;;2.97;;
13311;SDS011;34033;48.672;9.376;2023-05-29T05:39:55;3.77;;;3.30;;
13311;SDS011;34033;48.672;9.376;2023-05-29T05:42:23;3.50;;;3.07;;
13311;SDS011;34033;48.672;9.376;2023-05-29T05:44:48;5.63;;;3.67;;
13311;SDS011;34033;48.672;9.376;2023-05-29T05:47:13;6.53;;;3.70;;
13311;SDS011;34033;48.672;9.376;2023-05-29T05:49:39;5.23;;;3.57;;
13311;SDS011;34033;48.672;9.376;2023-05-29T05:52:05;5.00;;;3.93;;
13311;SDS011;34033;48.672;9.376;2023-05-29T05:54:31;4.57;;;3.80;;
13311;SDS011;34033;48.672;9.376;2023-05-29T05:56:56;4.87;;;3.47;;
13311;SDS011;34033;48.672;9.376;2023-05-29T05:59:21;4.70;;;3.67;;
13311;SDS011;34033;48.672;9.376;2023-05-29T06:01:47;4.30;;;3.63;;
13311;SDS011;34033;48.672;9.376;2023-05-29T06:04:12;5.20;;;3.77;;
13311;SDS011;34033;48.672;9.376;2023-05-29T06:06:38;3.77;;;3.00;;
13311;SDS011;34033;48.672;9.376;2023-05-29T06:09:03;4.87;;;3.80;;
13311;SDS011;34033;48.672;9.376;2023-05-29T06:11:29;4.30;;;3.70;;
13311;SDS011;34033;48.672;9.376;2023-05-29T06:13:55;4.03;;;3.50;;
13311;SDS011;34033;48.672;9.376;2023-05-29T06:16:20;4.27;;;3.70;;
13311;SDS011;34033;48.672;9.376;2023-05-29T06:18:46;5.40;;;3.47;;
13311;SDS011;34033;48.672;9.376;2023-05-29T06:21:11;3.80;;;3.40;;
13311;SDS011;34033;48.672;9.376;2023-05-29T06:23:37;6.47;;;3.73;;
13311;SDS011;34033;48.672;9.376;2023-05-29T06:26:03;5.23;;;3.80;;
13311;SDS011;34033;48.672;9.376;2023-05-29T06:28:29;3.63;;;2.30;;
13311;SDS011;34033;48.672;9.376;2023-05-29T06:30:55;3.83;;;2.40;;
13311;SDS011;34033;48.672;9.376;2023-05-29T06:33:20;5.27;;;2.87;;
13311;SDS011;34033;48.672;9.376;2023-05-29T06:35:47;3.57;;;2.87;;
13311;SDS011;34033;48.672;9.376;2023-05-29T06:38:13;5.60;;;3.10;;
13311;SDS011;34033;48.672;9.376;2023-05-29T06:40:39;4.83;;;3.33;;
13311;SDS011;34033;48.672;9.376;2023-05-29T06:43:04;5.40;;;3.50;;
13311;SDS011;34033;48.672;9.376;2023-05-29T06:45:30;8.83;;;3.83;;
13311;SDS011;34033;48.672;9.376;2023-05-29T06:47:55;4.60;;;3.60;;
13311;SDS011;34033;48.672;9.376;2023-05-29T06:50:20;4.40;;;3.63;;
13311;SDS011;34033;48.672;9.376;2023-05-29T06:52:46;6.23;;;3.93;;
13311;SDS011;34033;48.672;9.376;2023-05-29T06:55:11;7.90;;;3.93;;
13311;SDS011;34033;48.672;9.376;2023-05-29T06:57:36;5.03;;;3.50;;
13311;SDS011;34033;48.672;9.376;2023-05-29T07:00:03;4.57;;;3.40;;
13311;SDS011;34033;48.672;9.376;2023-05-29T07:02:30;5.97;;;3.77;;
13311;SDS011;34033;48.672;9.376;2023-05-29T07:04:56;4.13;;;3.73;;
13311;SDS011;34033;48.672;9.376;2023-05-29T07:07:21;3.70;;;3.10;;
13311;SDS011;34033;48.672;9.376;2023-05-29T07:09:47;5.37;;;3.13;;
13311;SDS011;34033;48.672;9.376;2023-05-29T07:12:12;8.43;;;3.27;;
13311;SDS011;34033;48.672;9.376;2023-05-29T07:14:37;5.17;;;3.50;;
13311;SDS011;34033;48.672;9.376;2023-05-29T07:17:02;6.00;;;3.80;;
13311;SDS011;34033;48.672;9.376;2023-05-29T07:19:28;4.93;;;3.80;;
13311;SDS011;34033;48.672;9.376;2023-05-29T07:21:54;4.03;;;3.63;;
13311;SDS011;34033;48.672;9.376;2023-05-29T07:24:19;4.20;;;3.33;;
13311;SDS011;34033;48.672;9.376;2023-05-29T07:26:45;9.10;;;3.83;;
13311;SDS011;34033;48.672;9.376;2023-05-29T07:29:10;6.90;;;3.53;;
13311;SDS011;34033;48.672;9.376;2023-05-29T07:31:36;5.77;;;3.73;;
13311;SDS011;34033;48.672;9.376;2023-05-29T07:34:02;4.90;;;3.60;;
13311;SDS011;34033;48.672;9.376;2023-05-29T07:36:29;8.33;;;3.73;;
13311;SDS011;34033;48.672;9.376;2023-05-29T07:38:58;5.47;;;3.37;;
13311;SDS011;34033;48.672;9.376;2023-05-29T07:41:23;3.73;;;3.10;;
13311;SDS011;34033;48.672;9.376;2023-05-29T07:43:49;6.70;;;2.80;;
13311;SDS011;34033;48.672;9.376;2023-05-29T07:46:17;4.83;;;3.13;;
13311;SDS011;34033;48.672;9.376;2023-05-29T07:48:42;2.83;;;2.47;;
13311;SDS011;34033;48.672;9.376;2023-05-29T07:51:08;4.60;;;2.97;;
13311;SDS011;34033;48.672;9.376;2023-05-29T07:53:35;2.90;;;2.67;;
13311;SDS011;34033;48.672;9.376;2023-05-29T07:56:00;5.07;;;2.67;;
13311;SDS011;34033;48.672;9.376;2023-05-29T07:58:26;3.03;;;2.73;;
13311;SDS011;34033;48.672;9.376;2023-05-29T08:00:52;4.43;;;3.13;;
13311;SDS011;34033;48.672;9.376;2023-05-29T08:03:18;5.40;;;2.87;;
13311;SDS011;34033;48.672;9.376;2023-05-29T08:05:43;3.13;;;2.83;;
13311;SDS011;34033;48.672;9.376;2023-05-29T08:08:09;6.00;;;3.20;;
13311;SDS011;34033;48.672;9.376;2023-05-29T08:10:37;4.87;;;3.40;;
13311;SDS011;34033;48.672;9.376;2023-05-29T08:13:03;4.80;;;3.10;;
13311;SDS011;34033;48.672;9.376;2023-05-29T08:15:28;7.27;;;3.10;;
13311;SDS011;34033;48.672;9.376;2023-05-29T08:17:54;5.33;;;3.00;;
13311;SDS011;34033;48.672;9.376;2023-05-29T08:20:19;3.70;;;2.93;;
13311;SDS011;34033;48.672;9.376;2023-05-29T08:22:45;4.30;;;2.77;;
13311;SDS011;34033;48.672;9.376;2023-05-29T08:25:11;3.67;;;3.07;;
13311;SDS011;34033;48.672;9.376;2023-05-29T08:27:36;5.83;;;3.03;;
13311;SDS011;34033;48.672;9.376;2023-05-29T08:30:02;11.73;;;4.30;;
13311;SDS011;34033;48.672;9.376;2023-05-29T08:32:28;7.47;;;3.40;;
13311;SDS011;34033;48.672;9.376;2023-05-29T08:34:54;9.37;;;4.30;;
13311;SDS011;34033;48.672;9.376;2023-05-29T08:37:19;4.23;;;3.00;;
13311;SDS011;34033;48.672;9.376;2023-05-29T08:39:44;9.07;;;3.23;;
13311;SDS011;34033;48.672;9.376;2023-05-29T08:42:12;4.83;;;3.30;;
13311;SDS011;34033;48.672;9.376;2023-05-29T08:44:42;7.17;;;3.53;;
13311;SDS011;34033;48.672;9.376;2023-05-29T08:47:12;3.53;;;3.00;;
13311;SDS011;34033;48.672;9.376;2023-05-29T08:49:43;4.40;;;2.80;;
13311;SDS011;34033;48.672;9.376;2023-05-29T08:52:17;6.17;;;2.93;;
13311;SDS011;34033;48.672;9.376;2023-05-29T08:54:44;3.67;;;2.90;;
13311;SDS011;34033;48.672;9.376;2023-05-29T08:57:11;3.67;;;3.20;;
13311;SDS011;34033;48.672;9.376;2023-05-29T08:59:37;5.07;;;3.13;;
13311;SDS011;34033;48.672;9.376;2023-05-29T09:02:06;2.93;;;2.73;;
13311;SDS011;34033;48.672;9.376;2023-05-29T09:04:32;3.90;;;3.00;;
13311;SDS011;34033;48.672;9.376;2023-05-29T09:06:58;4.00;;;3.08;;
13311;SDS011;34033;48.672;9.376;2023-05-29T09:09:24;4.30;;;3.10;;
13311;SDS011;34033;48.672;9.376;2023-05-29T09:11:52;5.30;;;2.73;;
13311;SDS011;34033;48.672;9.376;2023-05-29T09:14:37;8.77;;;2.90;;
13311;SDS011;34033;48.672;9.376;2023-05-29T09:17:03;3.83;;;2.83;;
13311;SDS011;34033;48.672;9.376;2023-05-29T09:19:30;3.73;;;2.97;;
13311;SDS011;34033;48.672;9.376;2023-05-29T09:22:05;3.77;;;3.20;;
13311;SDS011;34033;48.672;9.376;2023-05-29T09:24:34;3.77;;;2.80;;
13311;SDS011;34033;48.672;9.376;2023-05-29T09:27:01;3.67;;;3.03;;
13311;SDS011;34033;48.672;9.376;2023-05-29T09:29:32;4.27;;;2.90;;
13311;SDS011;34033;48.672;9.376;2023-05-29T09:31:58;2.97;;;2.70;;
13311;SDS011;34033;48.672;9.376;2023-05-29T09:34:25;2.70;;;2.50;;
13311;SDS011;34033;48.672;9.376;2023-05-29T09:36:52;3.53;;;2.63;;
13311;SDS011;34033;48.672;9.376;2023-05-29T09:39:18;3.33;;;2.60;;
13311;SDS011;34033;48.672;9.376;2023-05-29T09:41:44;5.33;;;3.00;;
13311;SDS011;34033;48.672;9.376;2023-05-29T09:44:11;2.63;;;2.43;;
13311;SDS011;34033;48.672;9.376;2023-05-29T09:46:38;5.20;;;2.33;;
13311;SDS011;34033;48.672;9.376;2023-05-29T09:49:13;2.57;;;2.37;;
13311;SDS011;34033;48.672;9.376;2023-05-29T09:51:40;3.70;;;2.63;;
13311;SDS011;34033;48.672;9.376;2023-05-29T09:54:14;4.97;;;2.60;;
13311;SDS011;34033;48.672;9.376;2023-05-29T09:56:42;3.77;;;2.40;;
13311;SDS011;34033;48.672;9.376;2023-05-29T09:59:12;3.07;;;2.80;;
13311;SDS011;34033;48.672;9.376;2023-05-29T10:01:42;3.20;;;2.60;;
13311;SDS011;34033;48.672;9.376;2023-05-29T10:04:11;4.47;;;2.50;;
13311;SDS011;34033;48.672;9.376;2023-05-29T10:06:37;2.47;;;2.33;;
13311;SDS011;34033;48.672;9.376;2023-05-29T10:09:06;2.53;;;2.33;;
13311;SDS011;34033;48.672;9.376;2023-05-29T10:11:37;4.13;;;2.50;;
13311;SDS011;34033;48.672;9.376;2023-05-29T10:14:06;6.07;;;2.70;;
13311;SDS011;34033;48.672;9.376;2023-05-29T10:16:36;3.23;;;2.37;;
13311;SDS011;34033;48.672;9.376;2023-05-29T10:19:10;3.17;;;2.33;;
13311;SDS011;34033;48.672;9.376;2023-05-29T10:21:37;3.30;;;3.00;;
13311;SDS011;34033;48.672;9.376;2023-05-29T10:24:06;3.47;;;2.33;;
13311;SDS011;34033;48.672;9.376;2023-05-29T10:26:34;2.77;;;2.30;;
13311;SDS011;34033;48.672;9.376;2023-05-29T10:40:02;2.57;;;2.37;;
13311;SDS011;34033;48.672;9.376;2023-05-29T10:42:47;5.40;;;2.00;;
13311;SDS011;34033;48.672;9.376;2023-05-29T10:50:50;2.73;;;1.90;;
13311;SDS011;34033;48.672;9.376;2023-05-29T10:55:44;2.23;;;2.03;;
13311;SDS011;34033;48.672;9.376;2023-05-29T10:58:14;6.17;;;2.40;;
13311;SDS011;34033;48.672;9.376;2023-05-29T11:00:43;4.13;;;2.40;;
13311;SDS011;34033;48.672;9.376;2023-05-29T11:03:11;3.13;;;2.20;;
13311;SDS011;34033;48.672;9.376;2023-05-29T11:06:01;2.63;;;2.40;;
13311;SDS011;34033;48.672;9.376;2023-05-29T11:08:33;2.33;;;2.13;;
13311;SDS011;34033;48.672;9.376;2023-05-29T11:13:52;3.10;;;2.20;;
13311;SDS011;34033;48.672;9.376;2023-05-29T11:18:56;2.43;;;2.23;;
13311;SDS011;34033;48.672;9.376;2023-05-29T11:24:09;2.53;;;2.33;;
13311;SDS011;34033;48.672;9.376;2023-05-29T11:26:45;2.63;;;2.42;;
13311;SDS011;34033;48.672;9.376;2023-05-29T11:29:12;6.80;;;2.60;;
13311;SDS011;34033;48.672;9.376;2023-05-29T11:31:38;2.72;;;2.17;;
13311;SDS011;34033;48.672;9.376;2023-05-29T11:34:05;3.17;;;2.15;;
13311;SDS011;34033;48.672;9.376;2023-05-29T11:36:35;4.03;;;2.28;;
13311;SDS011;34033;48.672;9.376;2023-05-29T11:39:02;5.22;;;2.20;;
13311;SDS011;34033;48.672;9.376;2023-05-29T11:41:28;2.40;;;2.20;;
13311;SDS011;34033;48.672;9.376;2023-05-29T11:44:00;2.30;;;2.10;;
13311;SDS011;34033;48.672;9.376;2023-05-29T11:46:30;2.53;;;2.22;;
13311;SDS011;34033;48.672;9.376;2023-05-29T11:48:57;2.25;;;2.05;;
13311;SDS011;34033;48.672;9.376;2023-05-29T11:51:23;4.15;;;2.25;;
13311;SDS011;34033;48.672;9.376;2023-05-29T11:53:49;2.95;;;2.10;;
13311;SDS011;34033;48.672;9.376;2023-05-29T11:56:17;2.60;;;2.20;;
13311;SDS011;34033;48.672;9.376;2023-05-29T11:58:43;2.63;;;2.42;;
13311;SDS011;34033;48.672;9.376;2023-05-29T12:01:10;2.30;;;2.10;;
13311;SDS011;34033;48.672;9.376;2023-05-29T12:03:39;3.80;;;1.95;;
13311;SDS011;34033;48.672;9.376;2023-05-29T12:06:05;2.33;;;2.03;;
13311;SDS011;34033;48.672;9.376;2023-05-29T12:08:31;3.65;;;2.08;;
13311;SDS011;34033;48.672;9.376;2023-05-29T12:10:57;2.72;;;2.08;;
13311;SDS011;34033;48.672;9.376;2023-05-29T12:13:22;2.40;;;2.20;;
13311;SDS011;34033;48.672;9.376;2023-05-29T12:15:49;3.03;;;2.10;;
13311;SDS011;34033;48.672;9.376;2023-05-29T12:18:17;2.65;;;2.08;;
13311;SDS011;34033;48.672;9.376;2023-05-29T12:20:43;4.80;;;2.60;;
13311;SDS011;34033;48.672;9.376;2023-05-29T12:23:09;2.67;;;2.20;;
13311;SDS011;34033;48.672;9.376;2023-05-29T12:25:34;1.95;;;1.85;;
13311;SDS011;34033;48.672;9.376;2023-05-29T12:28:03;2.90;;;2.15;;
13311;SDS011;34033;48.672;9.376;2023-05-29T12:30:29;2.78;;;2.50;;
13311;SDS011;34033;48.672;9.376;2023-05-29T12:32:54;2.60;;;2.40;;
13311;SDS011;34033;48.672;9.376;2023-05-29T12:35:21;2.63;;;2.42;;
13311;SDS011;34033;48.672;9.376;2023-05-29T12:38:08;2.80;;;2.55;;
13311;SDS011;34033;48.672;9.376;2023-05-29T12:40:33;3.92;;;2.28;;
13311;SDS011;34033;48.672;9.376;2023-05-29T12:43:03;4.05;;;2.40;;
13311;SDS011;34033;48.672;9.376;2023-05-29T12:45:31;5.57;;;2.55;;
13311;SDS011;34033;48.672;9.376;2023-05-29T12:48:01;2.42;;;2.20;;
13311;SDS011;34033;48.672;9.376;2023-05-29T12:50:29;2.42;;;2.22;;
13311;SDS011;34033;48.672;9.376;2023-05-29T12:55:23;3.00;;;2.20;;
13311;SDS011;34033;48.672;9.376;2023-05-29T12:57:49;2.22;;;2.00;;
13311;SDS011;34033;48.672;9.376;2023-05-29T13:00:15;2.80;;;2.40;;
13311;SDS011;34033;48.672;9.376;2023-05-29T13:02:41;2.03;;;1.90;;
13311;SDS011;34033;48.672;9.376;2023-05-29T13:05:06;2.17;;;2.00;;
13311;SDS011;34033;48.672;9.376;2023-05-29T13:07:32;2.28;;;2.17;;
13311;SDS011;34033;48.672;9.376;2023-05-29T13:09:59;3.25;;;2.10;;
13311;SDS011;34033;48.672;9.376;2023-05-29T13:12:25;2.17;;;2.08;;
13311;SDS011;34033;48.672;9.376;2023-05-29T13:14:50;2.42;;;2.08;;
13311;SDS011;34033;48.672;9.376;2023-05-29T13:17:15;2.53;;;2.30;;
13311;SDS011;34033;48.672;9.376;2023-05-29T13:19:41;2.28;;;2.17;;
13311;SDS011;34033;48.672;9.376;2023-05-29T13:22:06;2.40;;;2.15;;
13311;SDS011;34033;48.672;9.376;2023-05-29T13:24:32;3.47;;;2.03;;
13311;SDS011;34033;48.672;9.376;2023-05-29T13:26:57;2.22;;;2.10;;
13311;SDS011;34033;48.672;9.376;2023-05-29T13:29:25;2.40;;;2.20;;
13311;SDS011;34033;48.672;9.376;2023-05-29T13:31:51;2.22;;;2.03;;
13311;SDS011;34033;48.672;9.376;2023-05-29T13:34:16;2.45;;;2.25;;
13311;SDS011;34033;48.672;9.376;2023-05-29T13:36:42;2.60;;;2.40;;
13311;SDS011;34033;48.672;9.376;2023-05-29T13:39:09;2.33;;;2.15;;
13311;SDS011;34033;48.672;9.376;2023-05-29T13:41:35;4.80;;;2.40;;
13311;SDS011;34033;48.672;9.376;2023-05-29T13:44:00;2.55;;;2.20;;
13311;SDS011;34033;48.672;9.376;2023-05-29T13:46:26;2.85;;;2.50;;
13311;SDS011;34033;48.672;9.376;2023-05-29T13:48:52;2.65;;;2.08;;
13311;SDS011;34033;48.672;9.376;2023-05-29T13:51:17;2.38;;;2.15;;
13311;SDS011;34033;48.672;9.376;2023-05-29T13:53:43;2.22;;;2.05;;
13311;SDS011;34033;48.672;9.376;2023-05-29T13:56:08;2.40;;;2.20;;
13311;SDS011;34033;48.672;9.376;2023-05-29T13:58:33;2.35;;;2.20;;
13311;SDS011;34033;48.672;9.376;2023-05-29T14:00:59;2.70;;;2.50;;
13311;SDS011;34033;48.672;9.376;2023-05-29T14:03:24;4.13;;;2.60;;
13311;SDS011;34033;48.672;9.376;2023-05-29T14:05:53;2.42;;;2.22;;
13311;SDS011;34033;48.672;9.376;2023-05-29T14:08:19;2.25;;;2.13;;
13311;SDS011;34033;48.672;9.376;2023-05-29T14:10:44;2.17;;;2.08;;
13311;SDS011;34033;48.672;9.376;2023-05-29T14:13:09;2.40;;;2.20;;
13311;SDS011;34033;48.672;9.376;2023-05-29T14:15:35;3.08;;;2.30;;
13311;SDS011;34033;48.672;9.376;2023-05-29T14:18:00;2.58;;;2.38;;
13311;SDS011;34033;48.672;9.376;2023-05-29T14:20:27;2.33;;;2.22;;
13311;SDS011;34033;48.672;9.376;2023-05-29T14:22:53;2.45;;;2.25;;
13311;SDS011;34033;48.672;9.376;2023-05-29T14:25:19;2.05;;;1.95;;
13311;SDS011;34033;48.672;9.376;2023-05-29T14:27:44;4.13;;;2.30;;
13311;SDS011;34033;48.672;9.376;2023-05-29T14:30:10;2.50;;;2.35;;
13311;SDS011;34033;48.672;9.376;2023-05-29T14:32:35;2.25;;;2.10;;
13311;SDS011;34033;48.672;9.376;2023-05-29T14:35:01;2.60;;;2.40;;
13311;SDS011;34033;48.672;9.376;2023-05-29T14:37:26;2.50;;;2.30;;
13311;SDS011;34033;48.672;9.376;2023-05-29T14:39:52;2.38;;;2.03;;
13311;SDS011;34033;48.672;9.376;2023-05-29T14:42:17;2.67;;;2.15;;
13311;SDS011;34033;48.672;9.376;2023-05-29T14:44:42;2.17;;;2.03;;
13311;SDS011;34033;48.672;9.376;2023-05-29T14:47:08;2.00;;;1.90;;
13311;SDS011;34033;48.672;9.376;2023-05-29T14:49:33;2.28;;;2.08;;
13311;SDS011;34033;48.672;9.376;2023-05-29T14:51:59;2.47;;;2.28;;
13311;SDS011;34033;48.672;9.376;2023-05-29T14:54:24;2.58;;;2.38;;
13311;SDS011;34033;48.672;9.376;2023-05-29T14:56:50;2.30;;;2.10;;
13311;SDS011;34033;48.672;9.376;2023-05-29T14:59:16;2.40;;;2.20;;
13311;SDS011;34033;48.672;9.376;2023-05-29T15:01:41;2.50;;;2.10;;
13311;SDS011;34033;48.672;9.376;2023-05-29T15:04:06;2.30;;;2.10;;
13311;SDS011;34033;48.672;9.376;2023-05-29T15:06:32;2.10;;;2.00;;
13311;SDS011;34033;48.672;9.376;2023-05-29T15:08:58;2.58;;;2.38;;
13311;SDS011;34033;48.672;9.376;2023-05-29T15:11:25;2.58;;;2.38;;
13311;SDS011;34033;48.672;9.376;2023-05-29T15:13:51;2.45;;;2.10;;
13311;SDS011;34033;48.672;9.376;2023-05-29T15:16:16;2.13;;;2.03;;
13311;SDS011;34033;48.672;9.376;2023-05-29T15:18:42;2.10;;;2.00;;
13311;SDS011;34033;48.672;9.376;2023-05-29T15:21:07;5.10;;;2.05;;
13311;SDS011;34033;48.672;9.376;2023-05-29T15:23:32;2.38;;;2.00;;
13311;SDS011;34033;48.672;9.376;2023-05-29T15:26:00;2.00;;;1.90;;